createdAt,value
2018-05-12T00:02:03.260Z,17.46
2018-05-12T00:04:30.740Z,17.49
2018-05-12T00:06:58.224Z,17.57
2018-05-12T00:09:25.711Z,17.44
2018-05-12T00:11:53.176Z,17.35
2018-05-12T00:14:20.639Z,17.47
2018-05-12T00:16:48.121Z,17.23
2018-05-12T00:19:15.995Z,17.15
2018-05-12T00:21:43.488Z,17.22
2018-05-12T00:24:10.946Z,17.25
2018-05-12T00:26:38.431Z,17.21
2018-05-12T00:29:05.902Z,17.08
2018-05-12T00:31:33.387Z,16.83
2018-05-12T00:34:00.884Z,16.82
2018-05-12T00:36:28.360Z,16.79
2018-05-12T00:38:55.844Z,16.81
2018-05-12T00:41:23.491Z,16.83
2018-05-12T00:43:50.991Z,16.83
2018-05-12T00:46:18.460Z,16.84
2018-05-12T00:48:45.932Z,16.78
2018-05-12T00:51:13.415Z,16.79
2018-05-12T00:53:40.881Z,16.78
2018-05-12T00:56:08.408Z,16.79
2018-05-12T00:58:35.882Z,16.74
2018-05-12T01:01:03.365Z,16.71
2018-05-12T01:03:30.856Z,16.59
2018-05-12T01:05:58.319Z,16.68
2018-05-12T01:08:25.813Z,16.65
2018-05-12T01:10:53.284Z,16.66
2018-05-12T01:13:20.751Z,16.52
2018-05-12T01:15:48.245Z,16.58
2018-05-12T01:18:15.726Z,16.41
2018-05-12T01:20:43.247Z,16.35
2018-05-12T01:23:10.726Z,16.32
2018-05-12T01:25:38.208Z,16.35
2018-05-12T01:28:05.700Z,16.42
2018-05-12T01:30:33.167Z,16.25
2018-05-12T01:33:00.668Z,16.34
2018-05-12T01:35:28.149Z,16.23
2018-05-12T01:37:55.617Z,16.27
2018-05-12T01:40:23.107Z,16.26
2018-05-12T01:42:50.588Z,16.26
2018-05-12T01:45:18.072Z,16.29
2018-05-12T01:47:45.613Z,16.01
2018-05-12T01:50:13.081Z,15.95
2018-05-12T01:52:40.572Z,15.97
2018-05-12T01:55:08.031Z,15.94
2018-05-12T01:57:35.526Z,16.00
2018-05-12T02:00:02.995Z,16.08
2018-05-12T02:02:30.495Z,16.08
2018-05-12T02:04:57.996Z,15.96
2018-05-12T02:07:25.473Z,15.91
2018-05-12T02:09:52.961Z,15.80
2018-05-12T02:12:20.435Z,15.82
2018-05-12T02:14:47.906Z,15.81
2018-05-12T02:17:15.400Z,15.85
2018-05-12T02:19:42.889Z,15.89
2018-05-12T02:22:10.379Z,15.71
2018-05-12T02:24:37.843Z,15.90
2018-05-12T02:27:05.338Z,15.74
2018-05-12T02:29:32.904Z,15.71
2018-05-12T02:32:00.376Z,15.65
2018-05-12T02:34:27.905Z,15.59
2018-05-12T02:36:55.360Z,15.65
2018-05-12T02:39:22.959Z,15.75
2018-05-12T02:41:50.367Z,15.56
2018-05-12T02:44:17.887Z,15.60
2018-05-12T02:46:45.359Z,15.61
2018-05-12T02:49:12.828Z,15.55
2018-05-12T02:51:40.315Z,15.63
2018-05-12T02:54:07.789Z,15.58
2018-05-12T02:56:35.701Z,15.49
2018-05-12T02:59:03.172Z,15.45
2018-05-12T03:01:30.682Z,15.12
2018-05-12T03:03:58.152Z,15.00
2018-05-12T03:06:25.624Z,15.08
2018-05-12T03:08:53.132Z,15.14
2018-05-12T03:11:20.600Z,15.24
2018-05-12T03:13:48.112Z,15.22
2018-05-12T03:16:15.580Z,15.20
2018-05-12T03:18:43.048Z,15.27
2018-05-12T03:21:10.531Z,15.25
2018-05-12T03:23:37.999Z,15.23
2018-05-12T03:26:05.509Z,15.01
2018-05-12T03:28:32.984Z,15.15
2018-05-12T03:31:00.465Z,15.21
2018-05-12T03:33:27.965Z,15.21
2018-05-12T03:35:55.439Z,15.28
2018-05-12T03:38:23.075Z,15.34
2018-05-12T03:40:50.557Z,15.22
2018-05-12T03:43:18.019Z,15.16
2018-05-12T03:45:45.500Z,15.08
2018-05-12T03:48:12.979Z,15.06
2018-05-12T03:50:40.463Z,14.93
2018-05-12T03:53:07.946Z,15.02
2018-05-12T03:55:35.404Z,15.03
2018-05-12T03:58:02.901Z,15.16
2018-05-12T04:00:30.379Z,15.23
2018-05-12T04:02:57.866Z,15.10
2018-05-12T04:05:37.022Z,15.10
2018-05-12T04:08:16.257Z,15.02
2018-05-12T04:13:38.178Z,15.22
2018-05-12T04:16:05.647Z,15.16
2018-05-12T04:18:33.120Z,15.12
2018-05-12T04:21:00.624Z,15.33
2018-05-12T04:23:28.096Z,15.53
2018-05-12T04:25:55.580Z,15.56
2018-05-12T04:28:23.040Z,15.56
2018-05-12T04:30:50.531Z,15.59
2018-05-12T04:33:18.002Z,15.59
2018-05-12T04:35:45.468Z,15.66
2018-05-12T04:38:12.955Z,15.67
2018-05-12T04:40:40.426Z,15.73
2018-05-12T04:43:07.908Z,15.68
2018-05-12T04:45:35.376Z,15.78
2018-05-12T04:48:02.863Z,15.85
2018-05-12T04:50:30.330Z,15.99
2018-05-12T04:52:57.920Z,15.96
2018-05-12T04:55:25.417Z,16.06
2018-05-12T04:57:52.877Z,16.09
2018-05-12T05:00:20.376Z,16.08
2018-05-12T05:02:47.847Z,16.10
2018-05-12T05:05:15.319Z,16.18
2018-05-12T05:07:42.807Z,16.26
2018-05-12T05:10:10.281Z,16.38
2018-05-12T05:12:37.762Z,16.54
2018-05-12T05:15:05.232Z,16.76
2018-05-12T05:17:32.704Z,16.99
2018-05-12T05:20:00.187Z,17.59
2018-05-12T05:22:27.651Z,18.06
2018-05-12T05:24:55.373Z,18.03
2018-05-12T05:27:22.845Z,18.06
2018-05-12T05:29:50.308Z,18.39
2018-05-12T05:32:17.794Z,18.11
2018-05-12T05:34:45.257Z,17.85
2018-05-12T05:37:12.746Z,18.06
2018-05-12T05:39:40.211Z,18.09
2018-05-12T05:42:07.680Z,17.90
2018-05-12T05:44:35.157Z,18.38
2018-05-12T05:47:02.620Z,18.43
2018-05-12T05:49:30.114Z,19.05
2018-05-12T05:51:57.569Z,19.42
2018-05-12T05:54:25.038Z,19.18
2018-05-12T05:56:52.523Z,19.16
2018-05-12T05:59:19.980Z,19.16
2018-05-12T06:01:47.467Z,19.33
2018-05-12T06:04:14.940Z,19.16
2018-05-12T06:06:42.405Z,19.35
2018-05-12T06:09:09.907Z,18.84
2018-05-12T06:11:37.382Z,19.23
2018-05-12T06:14:04.863Z,19.29
2018-05-12T06:16:32.335Z,19.46
2018-05-12T06:19:00.462Z,19.32
2018-05-12T06:21:28.055Z,19.68
2018-05-12T06:23:55.513Z,19.71
2018-05-12T06:26:23.196Z,19.65
2018-05-12T06:28:50.679Z,19.56
2018-05-12T06:31:18.153Z,19.52
2018-05-12T06:33:45.879Z,19.74
2018-05-12T06:36:13.344Z,19.94
2018-05-12T06:38:40.844Z,19.86
2018-05-12T06:41:08.323Z,19.72
2018-05-12T06:43:35.784Z,19.74
2018-05-12T06:46:03.272Z,19.95
2018-05-12T06:48:30.748Z,19.97
2018-05-12T06:50:58.211Z,20.31
2018-05-12T06:53:25.690Z,20.27
2018-05-12T06:55:53.163Z,20.54
2018-05-12T06:58:20.648Z,20.69
2018-05-12T07:00:48.111Z,20.56
2018-05-12T07:03:15.571Z,21.28
2018-05-12T07:05:43.045Z,20.37
2018-05-12T07:08:10.515Z,21.20
2018-05-12T07:10:37.975Z,20.96
2018-05-12T07:13:05.491Z,20.65
2018-05-12T07:15:32.970Z,21.10
2018-05-12T07:18:00.781Z,21.53
2018-05-12T07:20:28.248Z,21.73
2018-05-12T07:22:55.760Z,21.58
2018-05-12T07:25:23.216Z,21.34
2018-05-12T07:27:50.676Z,20.96
2018-05-12T07:30:18.154Z,20.98
2018-05-12T07:32:45.623Z,21.36
2018-05-12T07:35:13.099Z,21.11
2018-05-12T07:37:40.568Z,21.06
2018-05-12T07:40:08.040Z,21.28
2018-05-12T07:42:35.527Z,21.81
2018-05-12T07:45:02.999Z,21.76
2018-05-12T07:47:30.495Z,21.98
2018-05-12T07:49:57.965Z,22.08
2018-05-12T07:52:25.468Z,21.16
2018-05-12T07:54:52.963Z,21.74
2018-05-12T07:57:20.415Z,21.95
2018-05-12T07:59:47.893Z,21.83
2018-05-12T08:02:15.612Z,22.04
2018-05-12T08:04:43.089Z,21.74
2018-05-12T08:07:10.564Z,22.27
2018-05-12T08:09:38.041Z,22.50
2018-05-12T08:12:05.819Z,22.59
2018-05-12T08:14:33.285Z,22.57
2018-05-12T08:17:00.748Z,22.58
2018-05-12T08:19:28.238Z,22.37
2018-05-12T08:21:56.040Z,22.95
2018-05-12T08:24:23.527Z,23.05
2018-05-12T08:26:51.036Z,22.76
2018-05-12T08:29:18.578Z,22.82
2018-05-12T08:31:46.066Z,22.54
2018-05-12T08:34:13.537Z,22.99
2018-05-12T08:36:41.012Z,23.34
2018-05-12T08:39:08.463Z,23.12
2018-05-12T08:41:35.962Z,23.23
2018-05-12T08:44:03.427Z,23.50
2018-05-12T08:46:30.896Z,22.99
2018-05-12T08:48:58.380Z,23.00
2018-05-12T08:51:25.838Z,23.19
2018-05-12T08:53:53.315Z,23.74
2018-05-12T08:56:20.788Z,23.83
2018-05-12T08:58:48.256Z,23.96
2018-05-12T09:01:15.747Z,23.60
2018-05-12T09:03:43.216Z,23.90
2018-05-12T09:06:10.700Z,23.60
2018-05-12T09:08:38.164Z,24.27
2018-05-12T09:11:05.624Z,24.61
2018-05-12T09:13:33.108Z,23.76
2018-05-12T09:16:00.581Z,23.42
2018-05-12T09:18:28.063Z,24.04
2018-05-12T09:20:55.532Z,24.38
2018-05-12T09:23:22.996Z,24.31
2018-05-12T09:25:50.476Z,24.10
2018-05-12T09:28:17.945Z,24.04
2018-05-12T09:30:45.429Z,24.74
2018-05-12T09:33:12.896Z,24.02
2018-05-12T09:35:40.367Z,24.53
2018-05-12T09:38:07.849Z,24.89
2018-05-12T09:40:35.313Z,25.35
2018-05-12T09:43:02.799Z,25.37
2018-05-12T09:45:30.263Z,25.04
2018-05-12T09:47:57.727Z,25.76
2018-05-12T09:50:25.231Z,26.03
2018-05-12T09:52:52.688Z,25.92
2018-05-12T09:55:20.181Z,25.89
2018-05-12T09:57:47.648Z,24.69
2018-05-12T10:00:16.031Z,26.14
2018-05-12T10:02:43.510Z,26.13
2018-05-12T10:05:10.967Z,26.24
2018-05-12T10:07:38.460Z,26.46
2018-05-12T10:10:05.931Z,25.85
2018-05-12T10:12:33.380Z,26.13
2018-05-12T10:15:00.860Z,26.90
2018-05-12T10:17:28.318Z,27.29
2018-05-12T10:19:55.793Z,27.38
2018-05-12T10:22:23.260Z,26.98
2018-05-12T10:24:51.107Z,26.98
2018-05-12T10:27:18.569Z,26.83
2018-05-12T10:29:46.027Z,26.92
2018-05-12T10:32:13.505Z,27.21
2018-05-12T10:34:40.965Z,27.40
2018-05-12T10:37:08.440Z,27.80
2018-05-12T10:39:35.897Z,27.77
2018-05-12T10:42:03.357Z,27.31
2018-05-12T10:44:30.831Z,27.16
2018-05-12T10:46:58.649Z,28.02
2018-05-12T10:49:26.120Z,27.71
2018-05-12T10:51:53.571Z,27.71
2018-05-12T10:54:21.020Z,28.32
2018-05-12T10:56:48.483Z,27.99
2018-05-12T10:59:15.939Z,27.02
2018-05-12T11:01:43.431Z,29.00
2018-05-12T11:04:10.900Z,28.55
2018-05-12T11:06:39.299Z,29.01
2018-05-12T11:09:06.779Z,28.44
2018-05-12T11:11:34.241Z,28.96
2018-05-12T11:14:01.709Z,28.89
2018-05-12T11:16:29.169Z,28.94
2018-05-12T11:18:57.049Z,29.01
2018-05-12T11:21:24.504Z,29.16
2018-05-12T11:23:51.964Z,29.13
2018-05-12T11:26:19.438Z,28.24
2018-05-12T11:28:46.892Z,28.24
2018-05-12T11:31:14.361Z,28.62
2018-05-12T11:33:41.828Z,29.94
2018-05-12T11:36:09.307Z,31.05
2018-05-12T11:38:36.819Z,31.50
2018-05-12T11:41:04.227Z,29.59
2018-05-12T11:43:31.700Z,29.69
2018-05-12T11:45:59.157Z,31.08
2018-05-12T11:48:26.631Z,32.77
2018-05-12T11:50:54.083Z,32.30
2018-05-12T11:53:21.867Z,32.44
2018-05-12T11:55:49.346Z,32.71
2018-05-12T11:58:17.134Z,32.45
2018-05-12T12:00:44.540Z,32.49
2018-05-12T12:03:11.991Z,31.69
2018-05-12T12:05:39.456Z,34.62
2018-05-12T12:08:06.923Z,32.86
2018-05-12T12:10:34.378Z,34.94
2018-05-12T12:13:01.841Z,34.75
2018-05-12T12:15:29.308Z,34.72
2018-05-12T12:17:56.782Z,32.94
2018-05-12T12:20:24.257Z,34.59
2018-05-12T12:22:51.712Z,32.43
2018-05-12T12:25:19.212Z,31.10
2018-05-12T12:27:46.672Z,31.86
2018-05-12T12:30:14.123Z,31.75
2018-05-12T12:32:41.606Z,31.61
2018-05-12T12:35:09.062Z,31.67
2018-05-12T12:37:36.539Z,33.37
2018-05-12T12:40:04.001Z,34.38
2018-05-12T12:42:31.463Z,34.77
2018-05-12T12:44:58.946Z,34.55
2018-05-12T12:47:26.415Z,32.98
2018-05-12T12:49:53.899Z,32.36
2018-05-12T12:52:21.356Z,30.67
2018-05-12T12:54:48.998Z,32.21
2018-05-12T12:57:16.462Z,33.85
2018-05-12T12:59:43.920Z,32.20
2018-05-12T13:02:11.411Z,32.10
2018-05-12T13:04:38.868Z,32.44
2018-05-12T13:07:06.340Z,33.35
2018-05-12T13:09:33.797Z,31.98
2018-05-12T13:12:01.260Z,30.84
2018-05-12T13:14:28.736Z,29.69
2018-05-12T13:16:56.196Z,29.89
2018-05-12T13:19:23.668Z,28.73
2018-05-12T13:21:51.120Z,28.93
2018-05-12T13:24:18.583Z,28.56
2018-05-12T13:26:46.071Z,28.12
2018-05-12T13:29:13.537Z,28.03
2018-05-12T13:31:41.010Z,28.31
2018-05-12T13:34:08.469Z,28.69
2018-05-12T13:36:35.948Z,30.01
2018-05-12T13:39:03.434Z,28.84
2018-05-12T13:41:30.896Z,29.08
2018-05-12T13:43:58.364Z,28.51
2018-05-12T13:46:25.821Z,28.40
2018-05-12T13:48:53.339Z,30.45
2018-05-12T13:51:20.928Z,28.19
2018-05-12T13:53:48.384Z,28.25
2018-05-12T13:56:16.078Z,27.53
2018-05-12T13:58:43.540Z,27.34
2018-05-12T14:01:11.008Z,29.02
2018-05-12T14:03:38.496Z,29.98
2018-05-12T14:06:05.956Z,31.15
2018-05-12T14:08:33.448Z,31.35
2018-05-12T14:11:00.904Z,30.59
2018-05-12T14:13:28.354Z,32.09
2018-05-12T14:15:55.827Z,32.41
2018-05-12T14:18:23.296Z,32.18
2018-05-12T14:20:50.779Z,31.63
2018-05-12T14:23:18.235Z,31.79
2018-05-12T14:25:45.708Z,32.80
2018-05-12T14:28:13.175Z,33.38
2018-05-12T14:30:40.632Z,32.99
2018-05-12T14:33:08.117Z,34.87
2018-05-12T14:35:35.579Z,32.67
2018-05-12T14:38:03.077Z,31.84
2018-05-12T14:40:30.533Z,31.95
2018-05-12T14:42:58.007Z,32.10
2018-05-12T14:45:25.473Z,31.60
2018-05-12T14:47:52.972Z,33.51
2018-05-12T14:50:20.444Z,32.27
2018-05-12T14:52:47.907Z,33.38
2018-05-12T14:55:15.476Z,33.87
2018-05-12T14:57:43.224Z,34.64
2018-05-12T15:00:10.740Z,33.34
2018-05-12T15:02:38.267Z,33.62
2018-05-12T15:05:05.737Z,32.70
2018-05-12T15:07:33.216Z,32.42
2018-05-12T15:10:00.699Z,31.23
2018-05-12T15:12:28.183Z,31.01
2018-05-12T15:14:55.731Z,29.90
2018-05-12T15:17:23.125Z,29.33
2018-05-12T15:19:50.974Z,29.18
2018-05-12T15:22:18.427Z,30.05
2018-05-12T15:24:45.916Z,29.77
2018-05-12T15:27:13.376Z,29.50
2018-05-12T15:29:40.820Z,29.72
2018-05-12T15:32:08.325Z,31.31
2018-05-12T15:34:35.795Z,31.44
2018-05-12T15:37:03.303Z,32.35
2018-05-12T15:39:30.768Z,31.63
2018-05-12T15:41:58.240Z,33.42
2018-05-12T15:44:25.712Z,32.64
2018-05-12T15:46:53.181Z,32.36
2018-05-12T15:49:20.663Z,33.06
2018-05-12T15:51:48.119Z,32.62
2018-05-12T15:54:15.578Z,32.28
2018-05-12T15:56:43.059Z,33.48
2018-05-12T15:59:10.516Z,31.35
2018-05-12T16:01:38.012Z,32.27
2018-05-12T16:04:05.470Z,32.61
2018-05-12T16:06:32.925Z,33.35
2018-05-12T16:09:00.402Z,32.80
2018-05-12T16:11:27.860Z,33.45
2018-05-12T16:13:55.673Z,33.63
2018-05-12T16:16:23.127Z,33.59
2018-05-12T16:18:50.587Z,33.78
2018-05-12T16:21:18.149Z,32.31
2018-05-12T16:23:45.634Z,33.87
2018-05-12T16:26:13.282Z,32.81
2018-05-12T16:28:40.739Z,32.41
2018-05-12T16:31:08.195Z,32.16
2018-05-12T16:33:35.743Z,33.25
2018-05-12T16:36:03.194Z,32.43
2018-05-12T16:38:30.680Z,33.84
2018-05-12T16:40:58.140Z,33.29
2018-05-12T16:43:25.609Z,31.30
2018-05-12T16:45:53.079Z,31.68
2018-05-12T16:48:20.535Z,32.21
2018-05-12T16:50:48.048Z,31.76
2018-05-12T16:53:15.490Z,32.04
2018-05-12T16:55:42.948Z,32.14
2018-05-12T16:58:10.425Z,31.94
2018-05-12T17:00:37.879Z,33.06
2018-05-12T17:03:05.366Z,31.90
2018-05-12T17:05:32.868Z,33.28
2018-05-12T17:08:00.331Z,30.91
2018-05-12T17:10:27.847Z,31.29
2018-05-12T17:12:55.300Z,31.44
2018-05-12T17:15:22.804Z,30.81
2018-05-12T17:17:50.262Z,32.09
2018-05-12T17:20:17.828Z,30.05
2018-05-12T17:22:45.220Z,30.36
2018-05-12T17:25:12.672Z,31.54
2018-05-12T17:27:40.153Z,30.01
2018-05-12T17:30:07.609Z,28.88
2018-05-12T17:32:35.144Z,28.66
2018-05-12T17:35:02.612Z,27.87
2018-05-12T17:37:30.286Z,27.20
2018-05-12T17:39:57.768Z,25.85
2018-05-12T17:42:25.228Z,25.88
2018-05-12T17:44:52.962Z,25.23
2018-05-12T17:47:20.429Z,25.07
2018-05-12T17:49:47.880Z,25.07
2018-05-12T17:52:15.362Z,24.41
2018-05-12T17:54:42.836Z,24.99
2018-05-12T17:57:10.519Z,24.63
2018-05-12T17:59:38.010Z,24.94
2018-05-12T18:02:05.482Z,24.97
2018-05-12T18:04:33.049Z,25.10
2018-05-12T18:07:00.492Z,24.67
2018-05-12T18:09:27.988Z,24.28
2018-05-12T18:11:55.753Z,24.23
2018-05-12T18:14:23.217Z,23.78
2018-05-12T18:16:50.694Z,23.48
2018-05-12T18:19:18.158Z,23.44
2018-05-12T18:21:45.656Z,23.33
2018-05-12T18:24:13.127Z,23.26
2018-05-12T18:26:40.808Z,23.23
2018-05-12T18:29:08.287Z,23.04
2018-05-12T18:31:36.539Z,22.94
2018-05-12T18:34:04.032Z,22.87
2018-05-12T18:36:31.483Z,22.86
2018-05-12T18:38:58.945Z,22.62
2018-05-12T18:41:26.412Z,22.49
2018-05-12T18:43:53.919Z,22.66
2018-05-12T18:46:22.089Z,22.59
2018-05-12T18:48:49.549Z,22.56
2018-05-12T18:51:17.045Z,22.43
2018-05-12T18:53:44.502Z,22.39
2018-05-12T18:56:11.962Z,22.18
2018-05-12T18:58:39.458Z,22.30
2018-05-12T19:01:06.920Z,22.20
2018-05-12T19:03:34.407Z,22.35
2018-05-12T19:06:01.864Z,22.12
2018-05-12T19:08:29.373Z,22.27
2018-05-12T19:10:56.841Z,22.00
2018-05-12T19:13:24.301Z,21.96
2018-05-12T19:15:51.771Z,21.86
2018-05-12T19:18:19.240Z,21.92
2018-05-12T19:20:46.724Z,21.85
2018-05-12T19:23:14.190Z,21.94
2018-05-12T19:25:41.652Z,21.82
2018-05-12T19:28:09.396Z,21.74
2018-05-12T19:30:36.859Z,21.82
2018-05-12T19:33:04.342Z,21.88
2018-05-12T19:35:31.803Z,21.82
2018-05-12T19:37:59.252Z,21.83
2018-05-12T19:40:26.731Z,21.77
2018-05-12T19:42:54.184Z,21.77
2018-05-12T19:45:21.656Z,21.76
2018-05-12T19:47:49.110Z,21.55
2018-05-12T19:50:16.580Z,21.62
2018-05-12T19:52:44.071Z,21.64
2018-05-12T19:55:11.523Z,21.55
2018-05-12T19:57:39.014Z,21.58
2018-05-12T20:00:06.487Z,21.36
2018-05-12T20:02:33.988Z,21.38
2018-05-12T20:05:01.444Z,21.33
2018-05-12T20:07:28.907Z,21.41
2018-05-12T20:09:56.459Z,21.36
2018-05-12T20:12:23.870Z,21.32
2018-05-12T20:14:51.358Z,21.24
2018-05-12T20:17:18.832Z,21.23
2018-05-12T20:19:46.301Z,20.97
2018-05-12T20:22:13.783Z,21.18
2018-05-12T20:24:41.250Z,21.00
2018-05-12T20:27:08.736Z,21.09
2018-05-12T20:29:36.200Z,21.13
2018-05-12T20:32:03.672Z,21.00
2018-05-12T20:34:31.164Z,20.90
2018-05-12T20:36:58.624Z,20.92
2018-05-12T20:39:26.568Z,20.90
2018-05-12T20:41:54.044Z,20.90
2018-05-12T20:44:21.512Z,20.88
2018-05-12T20:46:49.001Z,20.85
2018-05-12T20:49:16.458Z,20.82
2018-05-12T20:51:44.182Z,20.73
2018-05-12T20:54:11.642Z,20.70
2018-05-12T20:56:39.103Z,20.59
2018-05-12T20:59:06.583Z,20.69
2018-05-12T21:01:34.051Z,20.49
2018-05-12T21:04:01.533Z,20.50
2018-05-12T21:06:29.008Z,20.43
2018-05-12T21:08:56.520Z,20.36
2018-05-12T21:11:23.987Z,20.37
2018-05-12T21:13:51.448Z,20.31
2018-05-12T21:16:19.085Z,20.38
2018-05-12T21:18:46.544Z,20.27
2018-05-12T21:21:14.028Z,20.29
2018-05-12T21:23:41.586Z,20.24
2018-05-12T21:26:09.069Z,20.18
2018-05-12T21:28:36.652Z,20.22
2018-05-12T21:31:04.129Z,20.15
2018-05-12T21:33:31.603Z,20.09
2018-05-12T21:35:59.065Z,19.98
2018-05-12T21:38:26.560Z,20.05
2018-05-12T21:40:54.024Z,19.89
2018-05-12T21:43:21.494Z,19.97
2018-05-12T21:45:48.973Z,19.86
2018-05-12T21:48:16.439Z,19.77
2018-05-12T21:50:44.144Z,19.67
2018-05-12T21:53:11.612Z,19.65
2018-05-12T21:55:39.075Z,19.74
2018-05-12T21:58:06.565Z,19.82
2018-05-12T22:00:34.032Z,19.69
2018-05-12T22:03:01.525Z,19.76
2018-05-12T22:05:28.978Z,19.71
2018-05-12T22:07:56.465Z,19.64
2018-05-12T22:10:23.946Z,19.63
2018-05-12T22:12:51.424Z,19.70
2018-05-12T22:15:18.926Z,19.73
2018-05-12T22:17:46.390Z,19.68
2018-05-12T22:20:13.863Z,19.71
2018-05-12T22:22:41.350Z,19.68
2018-05-12T22:25:08.820Z,19.58
2018-05-12T22:27:36.661Z,19.48
2018-05-12T22:30:04.148Z,19.59
2018-05-12T22:32:31.643Z,19.46
2018-05-12T22:34:59.118Z,19.43
2018-05-12T22:37:26.587Z,19.62
2018-05-12T22:39:54.091Z,19.37
2018-05-12T22:42:21.619Z,19.43
2018-05-12T22:44:49.100Z,19.39
2018-05-12T22:47:16.591Z,19.25
2018-05-12T22:49:44.075Z,19.16
2018-05-12T22:52:11.571Z,19.22
2018-05-12T22:54:39.047Z,19.22
2018-05-12T22:57:06.559Z,19.25
2018-05-12T22:59:34.035Z,19.13
2018-05-12T23:02:01.512Z,19.16
2018-05-12T23:04:28.991Z,19.13
2018-05-12T23:06:56.459Z,18.92
2018-05-12T23:09:23.946Z,18.97
2018-05-12T23:11:51.416Z,18.96
2018-05-12T23:14:18.891Z,18.98
2018-05-12T23:16:46.383Z,18.72
2018-05-12T23:19:13.860Z,18.69
2018-05-12T23:21:41.348Z,18.89
2018-05-12T23:24:08.830Z,18.65
2018-05-12T23:26:36.318Z,18.72
2018-05-12T23:29:03.787Z,18.65
2018-05-12T23:31:31.288Z,18.54
2018-05-12T23:33:58.760Z,18.58
2018-05-12T23:36:26.236Z,18.35
2018-05-12T23:38:53.716Z,18.24
2018-05-12T23:41:21.184Z,18.41
2018-05-12T23:43:48.691Z,18.40
2018-05-12T23:46:16.159Z,18.22
2018-05-12T23:48:43.660Z,18.23
2018-05-12T23:51:11.144Z,18.27
2018-05-12T23:53:38.617Z,18.17
2018-05-12T23:56:06.105Z,18.02
2018-05-12T23:58:33.584Z,18.05
